Frontier Phoenix — HOQV — position and weather

sailwx.info

Track history (hours):
 
Tides and Currents Weather Stations Pressure Air Temp Water Temp Dewpoint Dewpoint Depression Visibility Wind Speed Wind Dir Waves Ship Positions

Frontier Phoenix

Last reported at 2018-Jun-22 16:08 UTC. Time now 2018-Jun-24 16:16 UTC.
Position S 34°48' E 018°38'.

Length 292 m; draft 16.5 m.

Type: Cargo ship. MMSI: 355979000.

Date/timePositionNaut miles runAvg speedWind from/ knotsBaromVisibWave heightAir tempDewpointWater temp
2018-Jun-22 16:08S 34°48' E 018°38'211.1
2018-Jun-22 15:57S 34°47' E 018°36'512.0
2018-Jun-22 15:30S 34°46' E 018°30'712.8
2018-Jun-22 14:59S 34°44' E 018°22'611.1
2018-Jun-22 14:29S 34°40' E 018°17'510.6
2018-Jun-22 14:00S 34°36' E 018°13'510.7
2018-Jun-22 13:30S 34°32' E 018°08'510.6
2018-Jun-22 13:00S 34°29' E 018°04'5 9.6
2018-Jun-22 12:30S 34°25' E 017°60'5 9.9
2018-Jun-22 12:00S 34°21' E 017°56'510.3
2018-Jun-22 11:29S 34°17' E 017°52'510.4
2018-Jun-22 11:00S 34°13' E 017°49'510.6
2018-Jun-22 10:30S 34°08' E 017°46'510.5
2018-Jun-22 10:00S 34°05' E 017°41'510.3
2018-Jun-22 09:30S 34°01' E 017°36'510.4
2018-Jun-22 09:00S 33°57' E 017°32'610.3
2018-Jun-22 08:25S 33°53' E 017°27'410.1
2018-Jun-22 07:59S 33°50' E 017°23'  
Track history (hours):
 
Tides and Currents Weather Stations Pressure Air Temp Water Temp Dewpoint Dewpoint Depression Visibility Wind Speed Wind Dir Waves Ship Positions

Frontier Phoenix

Last reported at 2018-Jun-22 16:08 UTC. Time now 2018-Jun-24 16:16 UTC.
Position S 34°48' E 018°38'.

Length 292 m; draft 16.5 m.

Type: Cargo ship. MMSI: 355979000.

Date/timePositionNaut miles runAvg speedWind from/ knotsBaromVisibWave heightAir tempDewpointWater temp
2018-Jun-22 16:08S 34°48' E 018°38'211.1
2018-Jun-22 15:57S 34°47' E 018°36'512.0
2018-Jun-22 15:30S 34°46' E 018°30'712.8
2018-Jun-22 14:59S 34°44' E 018°22'611.1
2018-Jun-22 14:29S 34°40' E 018°17'510.6
2018-Jun-22 14:00S 34°36' E 018°13'510.7
2018-Jun-22 13:30S 34°32' E 018°08'510.6
2018-Jun-22 13:00S 34°29' E 018°04'5 9.6
2018-Jun-22 12:30S 34°25' E 017°60'5 9.9
2018-Jun-22 12:00S 34°21' E 017°56'510.3
2018-Jun-22 11:29S 34°17' E 017°52'510.4
2018-Jun-22 11:00S 34°13' E 017°49'510.6
2018-Jun-22 10:30S 34°08' E 017°46'510.5
2018-Jun-22 10:00S 34°05' E 017°41'510.3
2018-Jun-22 09:30S 34°01' E 017°36'510.4
2018-Jun-22 09:00S 33°57' E 017°32'610.3
2018-Jun-22 08:25S 33°53' E 017°27'410.1
2018-Jun-22 07:59S 33°50' E 017°23'  

Dump ship's entire track history